Time;durP1;ratioP1;P1;durP2;ratioP2;P2;SDS_P1;SDS_P2;PMS_P1;PMS_P2;Temp;Humidity;BMP_temperature;BMP_pressure;BME280_temperature;BME280_humidity;BME280_pressure;Samples;Min_cycle;Max_cycle;Signal;HPM_P1;HPM_P2
2023/08/26 00:01:16;;;;;;;28.23;25.20;;;;;;;;;;5035867;28;20184;-68
2023/08/26 00:03:42;;;;;;;32.23;25.17;;;;;;;;;;5053340;28;20201;-67
2023/08/26 00:06:08;;;;;;;29.87;25.07;;;;;;;;;;5053947;28;20203;-68
2023/08/26 00:08:33;;;;;;;27.00;24.20;;;;;;;;;;5055530;28;20595;-69
2023/08/26 00:10:59;;;;;;;32.30;26.57;;;;;;;;;;5055492;28;20181;-68
2023/08/26 00:13:25;;;;;;;29.57;26.00;;;;;;;;;;5036103;28;20186;-68
2023/08/26 00:15:51;;;;;;;30.20;26.07;;;;;;;;;;5053741;28;20252;-69
2023/08/26 00:18:17;;;;;;;30.47;26.50;;;;;;;;;;5053675;28;20193;-68
2023/08/26 00:20:43;;;;;;;29.90;25.43;;;;;;;;;;5053585;28;20182;-68
2023/08/26 00:23:09;;;;;;;32.30;25.43;;;;;;;;;;5053632;28;20181;-69
2023/08/26 00:25:35;;;;;;;33.83;25.47;;;;;;;;;;5035970;28;20222;-69
2023/08/26 00:28:02;;;;;;;30.20;25.70;;;;;;;;;;5035822;28;20595;-69
2023/08/26 00:30:28;;;;;;;30.37;26.53;;;;;;;;;;5035683;28;20640;-69
2023/08/26 00:32:54;;;;;;;30.17;25.90;;;;;;;;;;5036175;28;20270;-67
2023/08/26 00:35:20;;;;;;;30.60;27.30;;;;;;;;;;5039319;28;20229;-68
2023/08/26 00:37:46;;;;;;;31.27;25.67;;;;;;;;;;5058652;28;20197;-68
2023/08/26 00:40:12;;;;;;;31.43;26.47;;;;;;;;;;5037288;28;20655;-68
2023/08/26 00:42:38;;;;;;;33.37;27.73;;;;;;;;;;5054538;28;20209;-69
2023/08/26 00:45:05;;;;;;;34.13;27.10;;;;;;;;;;5036524;28;20283;-69
2023/08/26 00:47:31;;;;;;;32.07;25.97;;;;;;;;;;5055539;28;20308;-68
2023/08/26 00:49:57;;;;;;;34.40;25.87;;;;;;;;;;5037355;28;20216;-68
2023/08/26 00:52:23;;;;;;;28.00;24.40;;;;;;;;;;5054789;28;20206;-69
2023/08/26 00:54:49;;;;;;;28.03;23.27;;;;;;;;;;5053387;28;20182;-68
2023/08/26 00:57:15;;;;;;;29.07;23.77;;;;;;;;;;5035957;28;20217;-69
2023/08/26 00:59:41;;;;;;;29.87;22.63;;;;;;;;;;5035925;28;20186;-68
2023/08/26 01:02:08;;;;;;;27.37;21.80;;;;;;;;;;5035281;28;20183;-68
2023/08/26 01:04:34;;;;;;;28.47;22.63;;;;;;;;;;5035571;28;20202;-68
2023/08/26 01:07:00;;;;;;;23.90;21.23;;;;;;;;;;5053448;28;20194;-69
2023/08/26 01:09:26;;;;;;;26.43;22.50;;;;;;;;;;5054354;28;20178;-68
2023/08/26 01:12:05;;;;;;;27.10;20.30;;;;;;;;;;5039154;28;20184;-68
2023/08/26 01:14:35;;;;;;;29.17;21.13;;;;;;;;;;5057429;28;20292;-69
2023/08/26 01:17:02;;;;;;;28.83;21.37;;;;;;;;;;5057315;28;20183;-69
2023/08/26 01:19:35;;;;;;;33.17;22.53;;;;;;;;;;5056825;28;20202;-69
2023/08/26 01:22:02;;;;;;;28.17;22.47;;;;;;;;;;5056723;28;20555;-69
2023/08/26 01:24:28;;;;;;;24.57;20.77;;;;;;;;;;5056703;28;20245;-67
2023/08/26 01:26:54;;;;;;;31.93;21.17;;;;;;;;;;5039068;28;20203;-69
2023/08/26 01:29:20;;;;;;;23.73;20.43;;;;;;;;;;5056809;28;20632;-68
2023/08/26 01:31:52;;;;;;;24.10;19.43;;;;;;;;;;5038907;28;20178;-68
2023/08/26 01:34:20;;;;;;;24.63;20.43;;;;;;;;;;5057434;28;20155;-68
2023/08/26 01:36:47;;;;;;;27.10;21.73;;;;;;;;;;5038882;28;20691;-70
2023/08/26 01:39:15;;;;;;;24.87;22.07;;;;;;;;;;5057571;28;20186;-69
2023/08/26 01:41:44;;;;;;;17.33;14.90;;;;;;;;;;5039377;28;20183;-69
2023/08/26 01:44:11;;;;;;;14.20;10.27;;;;;;;;;;5056798;28;20229;-69
2023/08/26 01:46:37;;;;;;;9.20;6.37;;;;;;;;;;5038983;28;20205;-68
2023/08/26 01:49:04;;;;;;;8.60;6.13;;;;;;;;;;5056448;28;20194;-68
2023/08/26 01:51:30;;;;;;;8.20;5.80;;;;;;;;;;5038675;28;20179;-68
2023/08/26 01:53:56;;;;;;;6.53;4.20;;;;;;;;;;5056216;28;20187;-68
2023/08/26 01:56:22;;;;;;;9.07;4.97;;;;;;;;;;5038757;28;20207;-68
2023/08/26 01:58:48;;;;;;;7.67;3.80;;;;;;;;;;5038736;28;20182;-68
2023/08/26 02:01:14;;;;;;;9.20;3.57;;;;;;;;;;5055975;28;20232;-69
2023/08/26 02:03:40;;;;;;;8.77;3.20;;;;;;;;;;5056449;28;20293;-68
2023/08/26 02:06:06;;;;;;;7.90;3.30;;;;;;;;;;5056554;28;20198;-68
2023/08/26 02:08:32;;;;;;;7.73;3.47;;;;;;;;;;5038723;28;20175;-68
2023/08/26 02:10:58;;;;;;;6.53;3.50;;;;;;;;;;5055967;28;20663;-68
2023/08/26 02:13:25;;;;;;;11.43;3.30;;;;;;;;;;5056071;28;20217;-68
2023/08/26 02:15:51;;;;;;;11.83;3.03;;;;;;;;;;5038355;28;20202;-68
2023/08/26 02:18:17;;;;;;;7.83;2.50;;;;;;;;;;5058054;28;20174;-68
2023/08/26 02:20:43;;;;;;;7.20;2.90;;;;;;;;;;5039728;28;20183;-68
2023/08/26 02:23:12;;;;;;;5.37;3.00;;;;;;;;;;5038733;28;20626;-68
2023/08/26 02:25:41;;;;;;;7.23;2.80;;;;;;;;;;5056082;28;20218;-68
2023/08/26 02:28:07;;;;;;;6.43;2.90;;;;;;;;;;5039276;28;20174;-68
2023/08/26 02:30:33;;;;;;;7.33;3.17;;;;;;;;;;5039145;28;20182;-68
2023/08/26 02:32:59;;;;;;;8.30;2.80;;;;;;;;;;5038295;28;20181;-67
2023/08/26 02:35:25;;;;;;;;;;;;;;;;;;5038301;28;19917;-68
2023/08/26 02:37:51;;;;;;;11.43;3.00;;;;;;;;;;5056405;28;19973;-68
2023/08/26 02:40:17;;;;;;;5.80;2.80;;;;;;;;;;5056265;28;20219;-68
2023/08/26 02:42:43;;;;;;;8.60;3.20;;;;;;;;;;5037808;28;20175;-68
2023/08/26 02:45:09;;;;;;;7.70;3.27;;;;;;;;;;5055585;28;19916;-68
2023/08/26 02:47:35;;;;;;;6.47;3.13;;;;;;;;;;5037746;28;20559;-68
2023/08/26 02:50:02;;;;;;;11.87;3.20;;;;;;;;;;5056025;28;20178;-68
2023/08/26 02:52:28;;;;;;;6.60;2.70;;;;;;;;;;5055693;28;20174;-66
2023/08/26 02:54:54;;;;;;;7.13;3.13;;;;;;;;;;5037706;28;20194;-66
2023/08/26 02:57:20;;;;;;;8.50;3.33;;;;;;;;;;5038193;28;20182;-69
2023/08/26 02:59:46;;;;;;;4.03;2.50;;;;;;;;;;5038099;28;20194;-67
2023/08/26 03:02:12;;;;;;;6.47;3.10;;;;;;;;;;5055770;28;20175;-67
2023/08/26 03:04:38;;;;;;;4.63;2.63;;;;;;;;;;5037411;28;20233;-68
2023/08/26 03:07:04;;;;;;;3.47;2.80;;;;;;;;;;5055200;28;20178;-69
2023/08/26 03:09:30;;;;;;;7.87;3.30;;;;;;;;;;5037301;28;20174;-68
2023/08/26 03:11:56;;;;;;;7.50;3.20;;;;;;;;;;5036245;28;21001;-68
2023/08/26 03:14:22;;;;;;;7.18;2.97;;;;;;;;;;5036413;28;20937;-67
2023/08/26 03:16:48;;;;;;;6.73;2.80;;;;;;;;;;5037211;28;20198;-68
2023/08/26 03:19:14;;;;;;;9.50;3.03;;;;;;;;;;5055410;28;20186;-68
2023/08/26 03:21:40;;;;;;;8.37;2.67;;;;;;;;;;5040377;28;20504;-68
2023/08/26 03:24:07;;;;;;;5.80;2.63;;;;;;;;;;5041273;28;20194;-69
2023/08/26 03:26:32;;;;;;;6.53;3.00;;;;;;;;;;5057383;28;20273;-69
2023/08/26 03:28:58;;;;;;;7.47;2.90;;;;;;;;;;5037703;28;20214;-67
2023/08/26 03:31:24;;;;;;;5.00;3.17;;;;;;;;;;5055420;28;20182;-67
2023/08/26 03:33:50;;;;;;;10.00;3.20;;;;;;;;;;5055267;28;20237;-67
2023/08/26 03:36:16;;;;;;;10.30;3.13;;;;;;;;;;5037658;28;20291;-67
2023/08/26 03:38:42;;;;;;;8.53;3.07;;;;;;;;;;5037887;28;20187;-67
2023/08/26 03:41:08;;;;;;;9.90;3.17;;;;;;;;;;5055963;28;20707;-68
2023/08/26 03:43:34;;;;;;;7.63;3.00;;;;;;;;;;5056160;28;20257;-68
2023/08/26 03:46:00;;;;;;;7.23;2.97;;;;;;;;;;5037614;28;20198;-68
2023/08/26 03:48:26;;;;;;;6.27;3.20;;;;;;;;;;5055581;28;20181;-68
2023/08/26 03:50:53;;;;;;;10.50;3.37;;;;;;;;;;5055578;28;20667;-69
2023/08/26 03:53:20;;;;;;;8.47;3.50;;;;;;;;;;5037495;28;20178;-66
2023/08/26 03:55:46;;;;;;;7.63;3.13;;;;;;;;;;5035272;28;20202;-65
2023/08/26 03:58:12;;;;;;;6.67;3.30;;;;;;;;;;5053163;28;20265;-65
2023/08/26 04:00:38;;;;;;;11.93;3.67;;;;;;;;;;5053343;28;20212;-65
2023/08/26 04:03:08;;;;;;;7.90;3.40;;;;;;;;;;5035196;28;20182;-67
2023/08/26 04:05:34;;;;;;;10.33;3.10;;;;;;;;;;5035185;28;20218;-66
2023/08/26 04:08:00;;;;;;;10.13;3.70;;;;;;;;;;5052963;28;20175;-66
2023/08/26 04:10:26;;;;;;;4.57;2.77;;;;;;;;;;5053260;28;20178;-65
2023/08/26 04:12:52;;;;;;;10.97;3.57;;;;;;;;;;5053655;28;20171;-66
2023/08/26 04:15:18;;;;;;;9.00;4.03;;;;;;;;;;5053428;28;20197;-66
2023/08/26 04:17:44;;;;;;;7.53;4.03;;;;;;;;;;5053217;28;20706;-66
2023/08/26 04:20:13;;;;;;;8.07;3.60;;;;;;;;;;5053948;28;20182;-66
2023/08/26 04:22:40;;;;;;;9.03;3.63;;;;;;;;;;5053491;28;20267;-67
2023/08/26 04:25:06;;;;;;;13.83;4.20;;;;;;;;;;5054096;28;20210;-66
2023/08/26 04:27:35;;;;;;;10.20;3.70;;;;;;;;;;5035523;28;20190;-66
2023/08/26 04:30:01;;;;;;;7.20;3.63;;;;;;;;;;5035602;28;20182;-66
2023/08/26 04:32:27;;;;;;;7.83;3.43;;;;;;;;;;5053237;28;20622;-66
2023/08/26 04:34:53;;;;;;;12.17;3.33;;;;;;;;;;5034666;28;20182;-67
2023/08/26 04:37:20;;;;;;;8.13;3.20;;;;;;;;;;5053239;28;20175;-67
2023/08/26 04:39:46;;;;;;;9.77;3.70;;;;;;;;;;5053011;28;20248;-65
2023/08/26 04:42:12;;;;;;;10.27;3.70;;;;;;;;;;5034925;28;20269;-64
2023/08/26 04:44:39;;;;;;;11.50;3.87;;;;;;;;;;5036105;28;20248;-65
2023/08/26 04:47:05;;;;;;;11.80;4.10;;;;;;;;;;5056894;28;20582;-65
2023/08/26 04:49:31;;;;;;;14.33;3.83;;;;;;;;;;5057217;28;20299;-64
2023/08/26 04:51:58;;;;;;;6.37;3.50;;;;;;;;;;5057334;28;20175;-64
2023/08/26 04:54:24;;;;;;;8.97;3.57;;;;;;;;;;5038869;28;20178;-65
2023/08/26 04:56:50;;;;;;;5.00;3.43;;;;;;;;;;5056535;28;20204;-65
2023/08/26 04:59:16;;;;;;;8.23;3.50;;;;;;;;;;5056615;28;20256;-65
2023/08/26 05:01:42;;;;;;;14.27;3.80;;;;;;;;;;5056711;28;20188;-65
2023/08/26 05:04:08;;;;;;;7.77;3.43;;;;;;;;;;5056736;28;20202;-66
2023/08/26 05:06:34;;;;;;;8.90;4.10;;;;;;;;;;5056460;28;20194;-66
2023/08/26 05:09:00;;;;;;;10.20;4.57;;;;;;;;;;5056708;28;20175;-66
2023/08/26 05:11:26;;;;;;;5.07;3.63;;;;;;;;;;5056831;28;20175;-67
2023/08/26 05:13:52;;;;;;;5.80;3.80;;;;;;;;;;5056581;28;20185;-67
2023/08/26 05:16:18;;;;;;;14.63;4.00;;;;;;;;;;5056258;28;20198;-68
2023/08/26 05:18:44;;;;;;;9.53;3.70;;;;;;;;;;5038266;28;20668;-66
2023/08/26 05:21:11;;;;;;;9.47;3.87;;;;;;;;;;5038471;28;20254;-68
2023/08/26 05:23:36;;;;;;;8.23;3.80;;;;;;;;;;5056031;28;20236;-65
2023/08/26 05:26:02;;;;;;;10.87;3.97;;;;;;;;;;5056070;28;20195;-66
2023/08/26 05:28:28;;;;;;;10.10;4.00;;;;;;;;;;5038217;28;20210;-66
2023/08/26 05:30:54;;;;;;;8.33;3.43;;;;;;;;;;5057137;28;20185;-66
2023/08/26 05:33:20;;;;;;;9.23;3.90;;;;;;;;;;5057681;28;20179;-67
2023/08/26 05:35:46;;;;;;;9.83;4.30;;;;;;;;;;5057115;28;20297;-68
2023/08/26 05:38:12;;;;;;;9.63;4.03;;;;;;;;;;5056399;28;20654;-66
2023/08/26 05:40:38;;;;;;;9.63;4.20;;;;;;;;;;5054970;28;20867;-67
2023/08/26 05:43:04;;;;;;;5.30;3.60;;;;;;;;;;5055931;28;20534;-67
2023/08/26 05:45:31;;;;;;;7.23;3.70;;;;;;;;;;5055854;28;20260;-65
2023/08/26 05:47:57;;;;;;;7.97;3.53;;;;;;;;;;5037692;28;20640;-67
2023/08/26 05:50:23;;;;;;;7.53;3.83;;;;;;;;;;5056055;28;20178;-66
2023/08/26 05:52:49;;;;;;;7.87;3.83;;;;;;;;;;5037851;28;20186;-65
2023/08/26 05:55:14;;;;;;;14.63;6.93;;;;;;;;;;5055291;28;20618;-66
2023/08/26 05:57:41;;;;;;;10.23;5.00;;;;;;;;;;5055261;28;20178;-66
2023/08/26 06:00:08;;;;;;;16.73;9.17;;;;;;;;;;5056154;28;20210;-66
2023/08/26 06:02:34;;;;;;;7.27;4.57;;;;;;;;;;5037780;28;20186;-66
2023/08/26 06:05:00;;;;;;;8.83;4.80;;;;;;;;;;5055503;28;20214;-66
2023/08/26 06:07:26;;;;;;;5.00;4.00;;;;;;;;;;5055596;28;20185;-66
2023/08/26 06:09:52;;;;;;;5.63;2.93;;;;;;;;;;5055541;28;20666;-65
2023/08/26 06:12:18;;;;;;;5.60;2.73;;;;;;;;;;5037294;28;20170;-65
2023/08/26 06:14:44;;;;;;;4.50;2.67;;;;;;;;;;5055082;28;20186;-66
2023/08/26 06:17:10;;;;;;;12.33;9.30;;;;;;;;;;5054985;28;20197;-66
2023/08/26 06:19:36;;;;;;;9.57;5.30;;;;;;;;;;5055505;28;20190;-66
2023/08/26 06:22:02;;;;;;;5.30;2.30;;;;;;;;;;5037119;28;20224;-66
2023/08/26 06:24:28;;;;;;;5.90;2.20;;;;;;;;;;5055325;28;20570;-66
2023/08/26 06:26:54;;;;;;;5.63;2.30;;;;;;;;;;5055365;28;20250;-65
2023/08/26 06:29:21;;;;;;;7.57;2.77;;;;;;;;;;5056089;28;20581;-66
2023/08/26 06:31:47;;;;;;;6.33;2.30;;;;;;;;;;5055605;28;20233;-66
2023/08/26 06:34:13;;;;;;;6.33;2.37;;;;;;;;;;5055446;28;20605;-69
2023/08/26 06:36:40;;;;;;;5.33;1.70;;;;;;;;;;5055162;28;20227;-68
2023/08/26 06:39:06;;;;;;;5.63;2.30;;;;;;;;;;5055896;28;20181;-65
2023/08/26 06:41:33;;;;;;;4.80;2.10;;;;;;;;;;5055589;28;20182;-65
2023/08/26 06:43:59;;;;;;;5.43;2.30;;;;;;;;;;5037301;28;20584;-67
2023/08/26 06:46:25;;;;;;;2.53;2.10;;;;;;;;;;5054876;28;20194;-65
2023/08/26 06:48:51;;;;;;;7.73;1.97;;;;;;;;;;5054630;28;20221;-66
2023/08/26 06:51:17;;;;;;;4.57;1.97;;;;;;;;;;5036866;28;20568;-67
2023/08/26 06:53:43;;;;;;;5.00;2.40;;;;;;;;;;5054646;28;20527;-66
2023/08/26 06:56:08;;;;;;;5.10;2.10;;;;;;;;;;5054483;28;20675;-67
2023/08/26 06:58:34;;;;;;;6.77;2.10;;;;;;;;;;5054370;28;20178;-67
2023/08/26 07:01:01;;;;;;;4.87;2.03;;;;;;;;;;5036953;28;20174;-67
2023/08/26 07:03:27;;;;;;;6.40;2.10;;;;;;;;;;5054382;28;20262;-67
2023/08/26 07:05:53;;;;;;;2.60;1.87;;;;;;;;;;5054257;28;20289;-67
2023/08/26 07:08:19;;;;;;;4.03;2.00;;;;;;;;;;5036652;28;20224;-65
2023/08/26 07:10:45;;;;;;;4.97;1.90;;;;;;;;;;5036520;28;20185;-68
2023/08/26 07:13:11;;;;;;;4.33;2.17;;;;;;;;;;5054073;28;20171;-66
2023/08/26 07:15:37;;;;;;;3.73;2.20;;;;;;;;;;5053830;28;20201;-67
2023/08/26 07:18:03;;;;;;;5.57;1.83;;;;;;;;;;5054174;28;20559;-67
2023/08/26 07:20:29;;;;;;;4.17;1.77;;;;;;;;;;5054380;28;20269;-67
2023/08/26 07:22:55;;;;;;;2.83;2.20;;;;;;;;;;5053825;28;20241;-66
2023/08/26 07:25:21;;;;;;;4.90;1.90;;;;;;;;;;5053697;28;20691;-66
2023/08/26 07:27:47;;;;;;;7.77;1.90;;;;;;;;;;5053695;28;20589;-66
2023/08/26 07:30:13;;;;;;;4.57;2.10;;;;;;;;;;5054039;28;20675;-66
2023/08/26 07:32:40;;;;;;;4.50;2.13;;;;;;;;;;5053699;28;20171;-66
2023/08/26 07:35:06;;;;;;;2.73;1.83;;;;;;;;;;5053502;28;20285;-66
2023/08/26 07:37:32;;;;;;;5.90;1.87;;;;;;;;;;5036095;28;20174;-66
2023/08/26 07:40:00;;;;;;;5.13;1.97;;;;;;;;;;5035666;28;20185;-66
2023/08/26 07:42:26;;;;;;;5.07;1.63;;;;;;;;;;5054509;28;20186;-66
2023/08/26 07:44:52;;;;;;;4.73;1.70;;;;;;;;;;5054824;28;20713;-66
2023/08/26 07:47:20;;;;;;;5.60;2.07;;;;;;;;;;5036882;28;20408;-66
2023/08/26 07:49:46;;;;;;;5.03;2.20;;;;;;;;;;5053581;28;20209;-65
2023/08/26 07:52:14;;;;;;;6.03;2.23;;;;;;;;;;5053159;28;20199;-65
2023/08/26 07:54:40;;;;;;;5.67;2.00;;;;;;;;;;5035359;28;20182;-65
2023/08/26 07:57:06;;;;;;;4.57;2.13;;;;;;;;;;5053227;28;20280;-65
2023/08/26 07:59:33;;;;;;;4.97;1.90;;;;;;;;;;5053344;28;20281;-65
2023/08/26 08:01:59;;;;;;;4.57;2.07;;;;;;;;;;5035497;28;20671;-65
2023/08/26 08:04:25;;;;;;;3.77;1.90;;;;;;;;;;5053074;28;20198;-65
2023/08/26 08:06:51;;;;;;;5.03;2.40;;;;;;;;;;5052904;28;20198;-65
2023/08/26 08:09:17;;;;;;;5.50;1.80;;;;;;;;;;5035267;28;20178;-64
2023/08/26 08:11:43;;;;;;;6.80;1.90;;;;;;;;;;5052781;28;20166;-65
2023/08/26 08:14:08;;;;;;;5.53;1.80;;;;;;;;;;5054265;28;20247;-65
2023/08/26 08:16:34;;;;;;;4.47;2.03;;;;;;;;;;5053688;28;20198;-65
2023/08/26 08:19:00;;;;;;;4.27;1.97;;;;;;;;;;5052873;28;20253;-66
2023/08/26 08:21:26;;;;;;;4.87;2.03;;;;;;;;;;5052921;28;20186;-66
2023/08/26 08:23:52;;;;;;;3.17;1.70;;;;;;;;;;5034983;28;20226;-66
2023/08/26 08:26:18;;;;;;;5.00;1.60;;;;;;;;;;5052954;28;20197;-65
2023/08/26 08:28:44;;;;;;;5.30;1.93;;;;;;;;;;5053049;28;20182;-66
2023/08/26 08:31:10;;;;;;;6.07;1.70;;;;;;;;;;5053372;28;20175;-66
2023/08/26 08:33:37;;;;;;;3.37;1.70;;;;;;;;;;5034893;28;20635;-66
2023/08/26 08:36:03;;;;;;;3.53;1.60;;;;;;;;;;5052568;28;20241;-66
2023/08/26 08:38:29;;;;;;;5.13;1.63;;;;;;;;;;5053056;28;20609;-66
2023/08/26 08:40:55;;;;;;;7.90;1.90;;;;;;;;;;5052789;28;20192;-66
2023/08/26 08:43:22;;;;;;;5.13;1.93;;;;;;;;;;5052916;28;20196;-66
2023/08/26 08:45:48;;;;;;;3.93;1.80;;;;;;;;;;5052501;28;20218;-66
2023/08/26 08:48:14;;;;;;;2.20;1.67;;;;;;;;;;5052789;28;20175;-66
2023/08/26 08:50:41;;;;;;;3.47;1.83;;;;;;;;;;5034913;28;20280;-66
2023/08/26 08:53:08;;;;;;;3.70;1.77;;;;;;;;;;5053443;28;20167;-65
2023/08/26 08:55:34;;;;;;;5.13;1.90;;;;;;;;;;5053543;28;20198;-66
2023/08/26 08:58:02;;;;;;;4.93;1.93;;;;;;;;;;5052728;28;20174;-65
2023/08/26 09:00:29;;;;;;;4.20;1.80;;;;;;;;;;5052846;28;20203;-66
2023/08/26 09:02:56;;;;;;;3.37;1.80;;;;;;;;;;5052394;28;20189;-67
2023/08/26 09:05:23;;;;;;;3.50;1.70;;;;;;;;;;5052488;28;20211;-67
2023/08/26 09:07:49;;;;;;;4.70;1.67;;;;;;;;;;5052706;28;20185;-67
2023/08/26 09:10:16;;;;;;;4.07;1.57;;;;;;;;;;5052622;28;20648;-66
2023/08/26 09:12:42;;;;;;;2.93;1.57;;;;;;;;;;5035044;28;20175;-66
2023/08/26 09:15:08;;;;;;;4.23;1.73;;;;;;;;;;5052767;28;20277;-66
2023/08/26 09:17:35;;;;;;;6.13;1.73;;;;;;;;;;5052292;28;20186;-66
2023/08/26 09:20:01;;;;;;;2.37;1.40;;;;;;;;;;5052309;28;20174;-66
2023/08/26 09:22:28;;;;;;;5.77;2.13;;;;;;;;;;5034618;28;20189;-66
2023/08/26 09:24:58;;;;;;;8.87;2.77;;;;;;;;;;5034509;28;20252;-66
2023/08/26 09:27:24;;;;;;;4.37;3.13;;;;;;;;;;5052341;28;20171;-66
2023/08/26 09:29:51;;;;;;;4.93;2.00;;;;;;;;;;5052467;28;20273;-66
2023/08/26 09:32:31;;;;;;;6.97;1.80;;;;;;;;;;5055818;28;20228;-66
2023/08/26 09:35:08;;;;;;;3.17;1.67;;;;;;;;;;5037788;28;20646;-65
2023/08/26 09:37:33;;;;;;;4.07;1.73;;;;;;;;;;5037938;28;20201;-67
2023/08/26 09:39:59;;;;;;;4.83;1.70;;;;;;;;;;5055863;28;20178;-66
2023/08/26 09:42:26;;;;;;;5.83;2.40;;;;;;;;;;5055683;28;20179;-66
2023/08/26 09:44:56;;;;;;;6.43;3.17;;;;;;;;;;5037946;28;20217;-66
2023/08/26 09:47:22;;;;;;;3.90;1.77;;;;;;;;;;5055517;28;20221;-66
2023/08/26 09:49:49;;;;;;;3.13;1.70;;;;;;;;;;5055698;28;20174;-66
2023/08/26 09:52:15;;;;;;;2.93;1.97;;;;;;;;;;5037756;28;20568;-66
2023/08/26 09:54:43;;;;;;;2.03;1.70;;;;;;;;;;5055756;28;20178;-67
2023/08/26 09:57:09;;;;;;;5.23;1.97;;;;;;;;;;5037625;28;20194;-64
2023/08/26 09:59:35;;;;;;;6.10;1.90;;;;;;;;;;5055894;28;20174;-66
2023/08/26 10:02:03;;;;;;;3.33;1.40;;;;;;;;;;5055576;28;20178;-65
2023/08/26 10:04:33;;;;;;;5.63;1.70;;;;;;;;;;5047348;22;20227;-70
2023/08/26 10:07:00;;;;;;;3.47;1.43;;;;;;;;;;5036214;28;20251;-69
2023/08/26 10:09:27;;;;;;;3.27;1.67;;;;;;;;;;5018234;28;20179;-69
2023/08/26 10:11:55;;;;;;;4.37;1.73;;;;;;;;;;5035498;28;20179;-69
2023/08/26 10:14:22;;;;;;;2.70;1.30;;;;;;;;;;5017700;28;20306;-70
2023/08/26 10:16:48;;;;;;;1.90;1.40;;;;;;;;;;5035237;28;20630;-71
2023/08/26 10:19:15;;;;;;;2.73;1.30;;;;;;;;;;5035331;28;20179;-70
2023/08/26 10:21:41;;;;;;;9.83;2.90;;;;;;;;;;5018014;28;20187;-68
2023/08/26 10:24:07;;;;;;;14.53;3.20;;;;;;;;;;5017402;28;20238;-68
2023/08/26 10:26:33;;;;;;;4.40;1.30;;;;;;;;;;5035046;28;20175;-68
2023/08/26 10:29:00;;;;;;;1.37;1.20;;;;;;;;;;5035342;28;20178;-68
2023/08/26 10:31:33;;;;;;;3.40;1.53;;;;;;;;;;5036040;28;20179;-68
2023/08/26 10:34:09;;;;;;;27.20;8.73;;;;;;;;;;5034921;28;20190;-68
2023/08/26 10:36:35;;;;;;;3.50;1.63;;;;;;;;;;5017035;28;20183;-69
2023/08/26 10:39:02;;;;;;;4.70;1.63;;;;;;;;;;5017068;28;20645;-68
2023/08/26 10:41:28;;;;;;;1.87;1.30;;;;;;;;;;5016770;28;20179;-68
2023/08/26 10:43:55;;;;;;;4.03;1.50;;;;;;;;;;5034333;28;20234;-68
2023/08/26 10:46:33;;;;;;;1.47;1.37;;;;;;;;;;5016705;28;20186;-69
2023/08/26 10:49:00;;;;;;;4.57;1.73;;;;;;;;;;5034549;28;20175;-69
2023/08/26 10:51:26;;;;;;;2.63;1.67;;;;;;;;;;5034288;28;20262;-69
2023/08/26 10:53:52;;;;;;;2.73;1.97;;;;;;;;;;5016655;28;20195;-69
2023/08/26 10:56:19;;;;;;;2.17;1.23;;;;;;;;;;5016710;28;20266;-69
2023/08/26 10:58:49;;;;;;;4.00;1.57;;;;;;;;;;5016874;28;20206;-68
2023/08/26 11:01:15;;;;;;;1.67;1.40;;;;;;;;;;5034318;28;20171;-69
2023/08/26 11:03:44;;;;;;;4.97;2.10;;;;;;;;;;5034080;28;20210;-68
2023/08/26 11:06:13;;;;;;;2.43;1.47;;;;;;;;;;5034730;28;20202;-69
2023/08/26 11:08:39;;;;;;;3.33;1.60;;;;;;;;;;5034141;28;20167;-69
2023/08/26 11:11:05;;;;;;;3.50;1.37;;;;;;;;;;5016245;28;20187;-69
2023/08/26 11:13:32;;;;;;;2.67;1.50;;;;;;;;;;5034051;28;20199;-69
2023/08/26 11:15:58;;;;;;;3.87;1.43;;;;;;;;;;5034436;28;20262;-69
2023/08/26 11:18:25;;;;;;;2.27;1.53;;;;;;;;;;5034407;28;20221;-69
2023/08/26 11:20:51;;;;;;;3.80;1.97;;;;;;;;;;5034695;28;20175;-70
2023/08/26 11:23:17;;;;;;;3.33;1.40;;;;;;;;;;5034451;28;20201;-69
2023/08/26 11:25:43;;;;;;;1.97;1.33;;;;;;;;;;5017218;28;20244;-69
2023/08/26 11:28:14;;;;;;;3.47;2.67;;;;;;;;;;5034065;28;20194;-69
2023/08/26 11:30:41;;;;;;;2.40;1.57;;;;;;;;;;5034021;28;20625;-68
2023/08/26 11:33:17;;;;;;;3.13;1.70;;;;;;;;;;5033853;28;20187;-69
2023/08/26 11:35:44;;;;;;;1.80;1.37;;;;;;;;;;5034334;28;20221;-69
2023/08/26 11:38:10;;;;;;;3.43;1.90;;;;;;;;;;5033755;28;20175;-68
2023/08/26 11:40:36;;;;;;;3.53;1.80;;;;;;;;;;5016082;28;20221;-69
2023/08/26 11:43:11;;;;;;;3.23;2.23;;;;;;;;;;5034153;28;20194;-69
2023/08/26 11:45:39;;;;;;;3.10;2.10;;;;;;;;;;5015880;28;20680;-69
2023/08/26 11:48:05;;;;;;;3.27;1.80;;;;;;;;;;5033802;28;20206;-69
2023/08/26 11:50:32;;;;;;;2.50;2.07;;;;;;;;;;5033699;28;20178;-69
2023/08/26 11:53:01;;;;;;;4.17;1.50;;;;;;;;;;5033995;28;20179;-68
2023/08/26 11:55:28;;;;;;;4.60;1.90;;;;;;;;;;5033588;28;20203;-70
2023/08/26 11:57:54;;;;;;;3.43;2.67;;;;;;;;;;5033359;28;20261;-69
2023/08/26 12:00:20;;;;;;;2.80;2.10;;;;;;;;;;5033534;28;20262;-69
2023/08/26 12:02:47;;;;;;;2.13;1.50;;;;;;;;;;5033992;28;20179;-69
2023/08/26 12:05:15;;;;;;;2.37;1.40;;;;;;;;;;5034220;28;20198;-69
2023/08/26 12:07:45;;;;;;;3.50;2.00;;;;;;;;;;5033873;28;20224;-68
2023/08/26 12:10:11;;;;;;;3.53;1.50;;;;;;;;;;5033697;28;20179;-69
2023/08/26 12:12:38;;;;;;;2.13;1.50;;;;;;;;;;5033733;28;20258;-69
2023/08/26 12:15:08;;;;;;;3.17;1.40;;;;;;;;;;5033520;28;20205;-69
2023/08/26 12:17:43;;;;;;;2.03;1.60;;;;;;;;;;5033861;28;20262;-68
2023/08/26 12:20:40;;;;;;;3.03;1.70;;;;;;;;;;5029253;28;20254;-70
2023/08/26 12:23:07;;;;;;;1.60;1.50;;;;;;;;;;5011740;28;20238;-69
2023/08/26 12:25:36;;;;;;;3.60;1.60;;;;;;;;;;5016031;28;20242;-71
2023/08/26 12:28:06;;;;;;;2.50;1.50;;;;;;;;;;5033402;28;20179;-70
2023/08/26 12:30:32;;;;;;;4.00;1.50;;;;;;;;;;5033613;28;20198;-69
2023/08/26 12:32:58;;;;;;;3.73;1.50;;;;;;;;;;5015785;28;20214;-69
2023/08/26 12:35:24;;;;;;;3.17;1.50;;;;;;;;;;5033315;28;20190;-69
2023/08/26 12:37:50;;;;;;;4.67;1.47;;;;;;;;;;5033068;28;20529;-69
2023/08/26 12:40:16;;;;;;;3.10;1.80;;;;;;;;;;5032895;28;20229;-68
2023/08/26 12:42:42;;;;;;;4.43;1.53;;;;;;;;;;5032982;28;20190;-68
2023/08/26 12:45:08;;;;;;;2.27;1.53;;;;;;;;;;5033179;28;20198;-69
2023/08/26 12:47:34;;;;;;;2.40;1.30;;;;;;;;;;5015074;28;20186;-68
2023/08/26 12:50:00;;;;;;;3.13;1.70;;;;;;;;;;5033225;28;20175;-68
2023/08/26 12:52:27;;;;;;;4.93;2.43;;;;;;;;;;5032802;28;20181;-68
2023/08/26 12:54:53;;;;;;;2.97;1.50;;;;;;;;;;5032538;28;20203;-69
2023/08/26 12:57:22;;;;;;;3.83;2.00;;;;;;;;;;5033274;28;20554;-69
2023/08/26 12:59:48;;;;;;;1.73;1.50;;;;;;;;;;5032501;28;20187;-68
2023/08/26 13:02:14;;;;;;;6.37;2.13;;;;;;;;;;5032492;28;20262;-69
2023/08/26 13:04:41;;;;;;;2.83;2.30;;;;;;;;;;5032370;28;20306;-68
2023/08/26 13:07:07;;;;;;;4.43;1.77;;;;;;;;;;5036298;28;20699;-69
2023/08/26 13:09:33;;;;;;;3.83;1.93;;;;;;;;;;5036218;28;20179;-69
2023/08/26 13:11:59;;;;;;;4.20;1.83;;;;;;;;;;5018791;28;20182;-68
2023/08/26 13:14:25;;;;;;;3.30;2.43;;;;;;;;;;5037193;28;20222;-69
2023/08/26 13:16:51;;;;;;;5.27;1.90;;;;;;;;;;5036342;28;20179;-69
2023/08/26 13:19:17;;;;;;;4.27;2.13;;;;;;;;;;5036112;28;20723;-68
2023/08/26 13:21:43;;;;;;;4.73;2.20;;;;;;;;;;5036487;28;20190;-69
2023/08/26 13:24:09;;;;;;;3.73;1.70;;;;;;;;;;5036154;28;20215;-68
2023/08/26 13:26:35;;;;;;;4.90;1.77;;;;;;;;;;5035923;28;20225;-68
2023/08/26 13:29:01;;;;;;;2.73;2.13;;;;;;;;;;5035922;28;20269;-69
2023/08/26 13:31:27;;;;;;;2.37;1.70;;;;;;;;;;5036007;28;20182;-68
2023/08/26 13:33:53;;;;;;;4.30;1.77;;;;;;;;;;5035987;28;20213;-69
2023/08/26 13:36:19;;;;;;;2.97;2.10;;;;;;;;;;5018149;28;20215;-69
2023/08/26 13:38:44;;;;;;;3.10;1.87;;;;;;;;;;5035746;28;20175;-69
2023/08/26 13:41:10;;;;;;;3.03;1.50;;;;;;;;;;5035691;28;20179;-69
2023/08/26 13:43:36;;;;;;;1.87;1.50;;;;;;;;;;5035761;28;20190;-69
2023/08/26 13:46:02;;;;;;;3.63;1.60;;;;;;;;;;5035657;28;20289;-68
2023/08/26 13:48:28;;;;;;;1.97;1.50;;;;;;;;;;5035897;28;20171;-69
2023/08/26 13:50:54;;;;;;;2.83;1.63;;;;;;;;;;5035950;28;20215;-69
2023/08/26 13:53:20;;;;;;;2.70;1.77;;;;;;;;;;5035629;28;20248;-69
2023/08/26 13:55:47;;;;;;;1.60;1.50;;;;;;;;;;5017899;28;20210;-70
2023/08/26 13:58:18;;;;;;;3.03;1.77;;;;;;;;;;5035502;28;20183;-69
2023/08/26 14:00:44;;;;;;;2.50;2.13;;;;;;;;;;5035575;28;20162;-70
2023/08/26 14:03:10;;;;;;;2.23;1.83;;;;;;;;;;5035322;28;20207;-69
2023/08/26 14:05:36;;;;;;;3.47;2.40;;;;;;;;;;5035680;28;20203;-69
2023/08/26 14:08:02;;;;;;;2.90;2.50;;;;;;;;;;5035673;28;20183;-69
2023/08/26 14:10:28;;;;;;;2.07;1.80;;;;;;;;;;5037178;28;20656;-69
2023/08/26 14:12:54;;;;;;;1.70;1.60;;;;;;;;;;5035538;28;20176;-69
2023/08/26 14:15:20;;;;;;;1.97;1.70;;;;;;;;;;5035485;28;20261;-69
2023/08/26 14:17:46;;;;;;;3.43;1.90;;;;;;;;;;5034447;28;20230;-69
2023/08/26 14:20:12;;;;;;;3.63;1.80;;;;;;;;;;5035569;28;20179;-69
2023/08/26 14:22:38;;;;;;;2.43;1.40;;;;;;;;;;5035528;28;20179;-68
2023/08/26 14:25:04;;;;;;;2.50;1.80;;;;;;;;;;5017466;28;20217;-68
2023/08/26 14:27:30;;;;;;;1.60;1.47;;;;;;;;;;5035564;28;20203;-68
2023/08/26 14:29:56;;;;;;;2.13;1.47;;;;;;;;;;5036271;28;20190;-69
2023/08/26 14:32:22;;;;;;;5.20;1.73;;;;;;;;;;5018063;28;20176;-69
2023/08/26 14:34:48;;;;;;;4.13;1.50;;;;;;;;;;5017355;28;20251;-69